sensor_id;sensor_type;location;lat;lon;timestamp;pressure;altitude;pressure_sealevel;temperature;humidity
42001;BME280;27689;48.390;10.856;2022-08-30T00:00:24;96388.69;;;16.58;97.65
42001;BME280;27689;48.390;10.856;2022-08-30T00:03:26;96396.50;;;16.51;98.17
42001;BME280;27689;48.390;10.856;2022-08-30T00:06:12;96396.69;;;16.50;98.61
42001;BME280;27689;48.390;10.856;2022-08-30T00:08:57;96397.06;;;16.47;98.54
42001;BME280;27689;48.390;10.856;2022-08-30T00:11:42;96388.81;;;16.42;98.26
42001;BME280;27689;48.390;10.856;2022-08-30T00:14:26;96394.75;;;16.44;97.49
42001;BME280;27689;48.390;10.856;2022-08-30T00:17:10;96390.81;;;16.40;96.98
42001;BME280;27689;48.390;10.856;2022-08-30T00:19:54;96393.78;;;16.37;96.53
42001;BME280;27689;48.390;10.856;2022-08-30T00:22:39;96388.28;;;16.23;96.52
42001;BME280;27689;48.390;10.856;2022-08-30T00:25:23;96392.78;;;16.15;97.73
42001;BME280;27689;48.390;10.856;2022-08-30T00:28:07;96397.44;;;16.13;98.66
42001;BME280;27689;48.390;10.856;2022-08-30T00:30:52;96400.41;;;16.10;99.36
42001;BME280;27689;48.390;10.856;2022-08-30T00:33:37;96392.47;;;16.10;99.30
42001;BME280;27689;48.390;10.856;2022-08-30T00:36:22;96390.00;;;16.08;98.71
42001;BME280;27689;48.390;10.856;2022-08-30T00:39:05;96405.03;;;16.08;98.86
42001;BME280;27689;48.390;10.856;2022-08-30T00:41:50;96393.81;;;16.06;98.92
42001;BME280;27689;48.390;10.856;2022-08-30T00:44:34;96397.28;;;16.06;98.76
42001;BME280;27689;48.390;10.856;2022-08-30T00:47:18;96388.53;;;16.06;98.36
42001;BME280;27689;48.390;10.856;2022-08-30T00:50:02;96394.88;;;15.97;99.66
42001;BME280;27689;48.390;10.856;2022-08-30T00:52:49;96397.19;;;15.92;100.00
42001;BME280;27689;48.390;10.856;2022-08-30T00:55:35;96400.09;;;15.74;100.00
42001;BME280;27689;48.390;10.856;2022-08-30T00:58:24;96399.25;;;15.73;100.00
42001;BME280;27689;48.390;10.856;2022-08-30T01:01:10;96398.25;;;15.82;100.00
42001;BME280;27689;48.390;10.856;2022-08-30T01:03:55;96401.66;;;15.91;100.00
42001;BME280;27689;48.390;10.856;2022-08-30T01:06:39;96396.22;;;15.93;100.00
42001;BME280;27689;48.390;10.856;2022-08-30T01:09:24;96401.31;;;15.94;100.00
42001;BME280;27689;48.390;10.856;2022-08-30T01:12:08;96403.78;;;15.96;100.00
42001;BME280;27689;48.390;10.856;2022-08-30T01:14:52;96399.66;;;15.93;99.26
42001;BME280;27689;48.390;10.856;2022-08-30T01:17:37;96390.63;;;15.88;99.18
42001;BME280;27689;48.390;10.856;2022-08-30T01:20:31;96378.44;;;15.78;99.50
42001;BME280;27689;48.390;10.856;2022-08-30T01:23:17;96383.91;;;15.77;99.97
42001;BME280;27689;48.390;10.856;2022-08-30T01:26:04;96388.91;;;15.72;100.00
42001;BME280;27689;48.390;10.856;2022-08-30T01:28:52;96399.63;;;15.70;100.00
42001;BME280;27689;48.390;10.856;2022-08-30T01:31:38;96396.50;;;15.67;100.00
42001;BME280;27689;48.390;10.856;2022-08-30T01:34:22;96388.56;;;15.67;100.00
42001;BME280;27689;48.390;10.856;2022-08-30T01:37:06;96391.38;;;15.65;100.00
42001;BME280;27689;48.390;10.856;2022-08-30T01:39:50;96394.69;;;15.59;100.00
42001;BME280;27689;48.390;10.856;2022-08-30T01:42:34;96393.25;;;15.57;100.00
42001;BME280;27689;48.390;10.856;2022-08-30T01:45:18;96396.34;;;15.52;100.00
42001;BME280;27689;48.390;10.856;2022-08-30T01:48:02;96395.22;;;15.46;100.00
42001;BME280;27689;48.390;10.856;2022-08-30T01:50:46;96390.09;;;15.45;100.00
42001;BME280;27689;48.390;10.856;2022-08-30T01:53:31;96392.56;;;15.46;100.00
42001;BME280;27689;48.390;10.856;2022-08-30T01:56:16;96390.59;;;15.48;100.00
42001;BME280;27689;48.390;10.856;2022-08-30T01:59:00;96387.16;;;15.40;100.00
42001;BME280;27689;48.390;10.856;2022-08-30T02:01:44;96389.97;;;15.30;100.00
42001;BME280;27689;48.390;10.856;2022-08-30T02:04:29;96385.19;;;15.34;100.00
42001;BME280;27689;48.390;10.856;2022-08-30T02:07:14;96389.47;;;15.35;100.00
42001;BME280;27689;48.390;10.856;2022-08-30T02:09:58;96388.16;;;15.31;100.00
42001;BME280;27689;48.390;10.856;2022-08-30T02:12:41;96382.41;;;15.27;100.00
42001;BME280;27689;48.390;10.856;2022-08-30T02:15:25;96390.84;;;15.23;100.00
42001;BME280;27689;48.390;10.856;2022-08-30T02:18:09;96375.53;;;15.02;100.00
42001;BME280;27689;48.390;10.856;2022-08-30T02:20:53;96382.28;;;15.12;100.00
42001;BME280;27689;48.390;10.856;2022-08-30T02:23:37;96381.47;;;15.04;100.00
42001;BME280;27689;48.390;10.856;2022-08-30T02:26:21;96384.44;;;15.09;100.00
42001;BME280;27689;48.390;10.856;2022-08-30T02:29:05;96380.13;;;15.16;100.00
42001;BME280;27689;48.390;10.856;2022-08-30T02:31:50;96380.59;;;15.20;100.00
42001;BME280;27689;48.390;10.856;2022-08-30T02:34:34;96384.06;;;15.20;100.00
42001;BME280;27689;48.390;10.856;2022-08-30T02:37:18;96379.94;;;15.26;100.00
42001;BME280;27689;48.390;10.856;2022-08-30T02:40:04;96375.66;;;15.25;100.00
42001;BME280;27689;48.390;10.856;2022-08-30T02:42:50;96381.09;;;15.15;100.00
42001;BME280;27689;48.390;10.856;2022-08-30T02:45:34;96379.13;;;15.17;100.00
42001;BME280;27689;48.390;10.856;2022-08-30T02:48:17;96375.66;;;15.16;100.00
42001;BME280;27689;48.390;10.856;2022-08-30T02:51:07;96375.00;;;15.14;100.00
42001;BME280;27689;48.390;10.856;2022-08-30T02:53:52;96374.53;;;15.11;100.00
42001;BME280;27689;48.390;10.856;2022-08-30T02:56:36;96381.94;;;15.07;100.00
42001;BME280;27689;48.390;10.856;2022-08-30T02:59:20;96382.78;;;15.00;100.00
42001;BME280;27689;48.390;10.856;2022-08-30T03:02:04;96376.34;;;15.02;100.00
42001;BME280;27689;48.390;10.856;2022-08-30T03:04:47;96379.00;;;15.02;100.00
42001;BME280;27689;48.390;10.856;2022-08-30T03:07:32;96377.34;;;15.01;100.00
42001;BME280;27689;48.390;10.856;2022-08-30T03:10:17;96373.22;;;14.99;100.00
42001;BME280;27689;48.390;10.856;2022-08-30T03:13:01;96383.31;;;14.95;100.00
42001;BME280;27689;48.390;10.856;2022-08-30T03:15:46;96373.06;;;14.92;100.00
42001;BME280;27689;48.390;10.856;2022-08-30T03:18:32;96364.81;;;14.87;100.00
42001;BME280;27689;48.390;10.856;2022-08-30T03:21:16;96370.63;;;14.82;100.00
42001;BME280;27689;48.390;10.856;2022-08-30T03:24:01;96370.78;;;14.81;100.00
42001;BME280;27689;48.390;10.856;2022-08-30T03:26:45;96365.84;;;14.78;100.00
42001;BME280;27689;48.390;10.856;2022-08-30T03:29:28;96371.94;;;14.78;100.00
42001;BME280;27689;48.390;10.856;2022-08-30T03:32:13;96367.31;;;14.72;100.00
42001;BME280;27689;48.390;10.856;2022-08-30T03:34:56;96361.88;;;14.58;100.00
42001;BME280;27689;48.390;10.856;2022-08-30T03:37:40;96368.31;;;14.55;100.00
42001;BME280;27689;48.390;10.856;2022-08-30T03:40:24;96374.59;;;14.54;100.00
42001;BME280;27689;48.390;10.856;2022-08-30T03:43:08;96375.06;;;14.58;100.00
42001;BME280;27689;48.390;10.856;2022-08-30T03:45:52;96379.69;;;14.56;100.00
42001;BME280;27689;48.390;10.856;2022-08-30T03:48:36;96380.03;;;14.53;100.00
42001;BME280;27689;48.390;10.856;2022-08-30T03:51:24;96387.13;;;14.52;100.00
42001;BME280;27689;48.390;10.856;2022-08-30T03:54:08;96384.13;;;14.55;100.00
42001;BME280;27689;48.390;10.856;2022-08-30T03:56:52;96381.16;;;14.58;100.00
42001;BME280;27689;48.390;10.856;2022-08-30T03:59:36;96378.69;;;14.57;100.00
42001;BME280;27689;48.390;10.856;2022-08-30T04:02:20;96382.84;;;14.51;100.00
42001;BME280;27689;48.390;10.856;2022-08-30T04:05:05;96383.13;;;14.24;100.00
42001;BME280;27689;48.390;10.856;2022-08-30T04:07:49;96381.63;;;14.29;100.00
42001;BME280;27689;48.390;10.856;2022-08-30T04:10:33;96394.31;;;14.34;100.00
42001;BME280;27689;48.390;10.856;2022-08-30T04:13:18;96394.13;;;14.19;100.00
42001;BME280;27689;48.390;10.856;2022-08-30T04:16:02;96398.72;;;14.25;100.00
42001;BME280;27689;48.390;10.856;2022-08-30T04:18:47;96401.25;;;14.35;100.00
42001;BME280;27689;48.390;10.856;2022-08-30T04:21:31;96407.34;;;14.35;100.00
42001;BME280;27689;48.390;10.856;2022-08-30T04:24:15;96399.28;;;14.37;100.00
42001;BME280;27689;48.390;10.856;2022-08-30T04:26:59;96413.63;;;14.42;100.00
42001;BME280;27689;48.390;10.856;2022-08-30T04:29:43;96405.19;;;14.39;100.00
42001;BME280;27689;48.390;10.856;2022-08-30T04:32:27;96407.19;;;14.37;100.00
42001;BME280;27689;48.390;10.856;2022-08-30T04:35:11;96407.66;;;14.32;100.00
42001;BME280;27689;48.390;10.856;2022-08-30T04:37:55;96401.72;;;14.30;100.00
42001;BME280;27689;48.390;10.856;2022-08-30T04:40:41;96404.34;;;14.30;100.00
42001;BME280;27689;48.390;10.856;2022-08-30T04:43:26;96405.50;;;14.28;100.00
42001;BME280;27689;48.390;10.856;2022-08-30T04:46:10;96415.38;;;14.26;100.00
42001;BME280;27689;48.390;10.856;2022-08-30T04:48:56;96422.81;;;14.30;100.00
42001;BME280;27689;48.390;10.856;2022-08-30T04:51:40;96419.03;;;14.33;100.00
42001;BME280;27689;48.390;10.856;2022-08-30T04:54:24;96422.47;;;14.33;100.00
42001;BME280;27689;48.390;10.856;2022-08-30T04:57:08;96415.38;;;14.26;100.00
42001;BME280;27689;48.390;10.856;2022-08-30T04:59:53;96425.28;;;14.24;100.00
42001;BME280;27689;48.390;10.856;2022-08-30T05:02:38;96426.91;;;14.25;100.00
42001;BME280;27689;48.390;10.856;2022-08-30T05:05:23;96429.06;;;14.29;100.00
42001;BME280;27689;48.390;10.856;2022-08-30T05:08:22;96429.72;;;14.31;100.00
42001;BME280;27689;48.390;10.856;2022-08-30T05:11:07;96428.41;;;14.35;100.00
42001;BME280;27689;48.390;10.856;2022-08-30T05:13:52;96436.16;;;14.37;100.00
42001;BME280;27689;48.390;10.856;2022-08-30T05:16:36;96432.88;;;14.35;100.00
42001;BME280;27689;48.390;10.856;2022-08-30T05:19:20;96443.91;;;14.38;100.00
42001;BME280;27689;48.390;10.856;2022-08-30T05:22:04;96435.34;;;14.36;100.00
42001;BME280;27689;48.390;10.856;2022-08-30T05:24:48;96448.03;;;14.41;100.00
42001;BME280;27689;48.390;10.856;2022-08-30T05:27:32;96454.81;;;14.43;100.00
42001;BME280;27689;48.390;10.856;2022-08-30T05:30:16;96457.63;;;14.50;100.00
42001;BME280;27689;48.390;10.856;2022-08-30T05:33:01;96463.25;;;14.63;100.00
42001;BME280;27689;48.390;10.856;2022-08-30T05:35:45;96459.78;;;14.71;100.00
42001;BME280;27689;48.390;10.856;2022-08-30T05:38:29;96465.25;;;14.77;100.00
42001;BME280;27689;48.390;10.856;2022-08-30T05:41:13;96461.31;;;14.81;100.00
42001;BME280;27689;48.390;10.856;2022-08-30T05:43:59;96452.88;;;14.86;100.00
42001;BME280;27689;48.390;10.856;2022-08-30T05:46:43;96457.50;;;14.92;100.00
42001;BME280;27689;48.390;10.856;2022-08-30T05:49:29;96457.66;;;14.99;100.00
42001;BME280;27689;48.390;10.856;2022-08-30T05:52:13;96455.19;;;15.05;100.00
42001;BME280;27689;48.390;10.856;2022-08-30T05:55:00;96456.81;;;15.14;100.00
42001;BME280;27689;48.390;10.856;2022-08-30T05:57:46;96454.50;;;15.20;100.00
42001;BME280;27689;48.390;10.856;2022-08-30T06:00:30;96462.44;;;15.28;100.00
42001;BME280;27689;48.390;10.856;2022-08-30T06:03:14;96448.22;;;15.37;100.00
42001;BME280;27689;48.390;10.856;2022-08-30T06:05:59;96452.81;;;15.51;100.00
42001;BME280;27689;48.390;10.856;2022-08-30T06:08:43;96455.28;;;15.61;100.00
42001;BME280;27689;48.390;10.856;2022-08-30T06:11:31;96455.25;;;15.69;100.00
42001;BME280;27689;48.390;10.856;2022-08-30T06:14:15;96456.38;;;15.82;100.00
42001;BME280;27689;48.390;10.856;2022-08-30T06:17:00;96449.53;;;15.96;100.00
42001;BME280;27689;48.390;10.856;2022-08-30T06:19:43;96454.63;;;16.06;100.00
42001;BME280;27689;48.390;10.856;2022-08-30T06:22:27;96453.59;;;16.15;100.00
42001;BME280;27689;48.390;10.856;2022-08-30T06:25:11;96448.91;;;16.25;100.00
42001;BME280;27689;48.390;10.856;2022-08-30T06:27:55;96451.97;;;16.37;100.00
42001;BME280;27689;48.390;10.856;2022-08-30T06:30:41;96448.47;;;16.44;100.00
42001;BME280;27689;48.390;10.856;2022-08-30T06:33:25;96456.66;;;16.57;100.00
42001;BME280;27689;48.390;10.856;2022-08-30T06:36:12;96445.69;;;16.69;100.00
42001;BME280;27689;48.390;10.856;2022-08-30T06:38:57;96448.28;;;16.77;100.00
42001;BME280;27689;48.390;10.856;2022-08-30T06:41:41;96445.03;;;16.89;100.00
42001;BME280;27689;48.390;10.856;2022-08-30T06:44:25;96443.25;;;17.05;100.00
42001;BME280;27689;48.390;10.856;2022-08-30T06:47:09;96446.75;;;17.20;100.00
42001;BME280;27689;48.390;10.856;2022-08-30T06:49:52;96438.56;;;17.30;100.00
42001;BME280;27689;48.390;10.856;2022-08-30T06:52:37;96445.03;;;17.42;100.00
42001;BME280;27689;48.390;10.856;2022-08-30T06:55:21;96443.59;;;17.54;100.00
42001;BME280;27689;48.390;10.856;2022-08-30T06:58:05;96448.09;;;17.68;100.00
42001;BME280;27689;48.390;10.856;2022-08-30T07:00:49;96440.78;;;17.85;100.00
42001;BME280;27689;48.390;10.856;2022-08-30T07:03:34;96446.25;;;17.98;100.00
42001;BME280;27689;48.390;10.856;2022-08-30T07:06:19;96439.88;;;18.07;100.00
42001;BME280;27689;48.390;10.856;2022-08-30T07:09:03;96444.78;;;18.25;100.00
42001;BME280;27689;48.390;10.856;2022-08-30T07:11:47;96434.81;;;18.48;100.00
42001;BME280;27689;48.390;10.856;2022-08-30T07:14:31;96441.94;;;18.62;98.35
42001;BME280;27689;48.390;10.856;2022-08-30T07:17:15;96438.13;;;18.72;100.00
42001;BME280;27689;48.390;10.856;2022-08-30T07:20:18;96447.47;;;18.82;95.13
42001;BME280;27689;48.390;10.856;2022-08-30T07:23:02;96439.78;;;18.94;96.65
42001;BME280;27689;48.390;10.856;2022-08-30T07:25:47;96437.59;;;18.97;94.67
42001;BME280;27689;48.390;10.856;2022-08-30T07:28:31;96432.94;;;19.06;95.04
42001;BME280;27689;48.390;10.856;2022-08-30T07:31:16;96429.19;;;19.22;96.48
42001;BME280;27689;48.390;10.856;2022-08-30T07:34:02;96428.09;;;19.37;96.53
42001;BME280;27689;48.390;10.856;2022-08-30T07:36:47;96418.31;;;19.45;94.19
42001;BME280;27689;48.390;10.856;2022-08-30T07:39:31;96421.31;;;19.56;93.22
42001;BME280;27689;48.390;10.856;2022-08-30T07:42:15;96420.50;;;19.62;91.27
42001;BME280;27689;48.390;10.856;2022-08-30T07:44:59;96423.66;;;19.73;93.26
42001;BME280;27689;48.390;10.856;2022-08-30T07:47:45;96423.09;;;19.84;92.43
42001;BME280;27689;48.390;10.856;2022-08-30T07:50:29;96427.44;;;19.98;92.52
42001;BME280;27689;48.390;10.856;2022-08-30T07:53:13;96428.91;;;20.07;91.12
42001;BME280;27689;48.390;10.856;2022-08-30T07:55:57;96431.41;;;20.15;89.77
42001;BME280;27689;48.390;10.856;2022-08-30T07:58:41;96438.84;;;20.33;90.38
42001;BME280;27689;48.390;10.856;2022-08-30T08:01:25;96434.38;;;20.40;89.42
42001;BME280;27689;48.390;10.856;2022-08-30T08:04:09;96431.34;;;20.50;88.57
42001;BME280;27689;48.390;10.856;2022-08-30T08:06:53;96426.88;;;20.63;87.81
42001;BME280;27689;48.390;10.856;2022-08-30T08:09:37;96435.72;;;20.77;86.47
42001;BME280;27689;48.390;10.856;2022-08-30T08:12:21;96435.72;;;20.90;86.92
42001;BME280;27689;48.390;10.856;2022-08-30T08:15:06;96437.19;;;21.06;86.35
42001;BME280;27689;48.390;10.856;2022-08-30T08:17:50;96448.25;;;21.23;84.86
42001;BME280;27689;48.390;10.856;2022-08-30T08:20:35;96446.22;;;21.38;85.68
42001;BME280;27689;48.390;10.856;2022-08-30T08:23:19;96445.16;;;21.52;82.78
42001;BME280;27689;48.390;10.856;2022-08-30T08:26:04;96443.94;;;21.61;81.27
42001;BME280;27689;48.390;10.856;2022-08-30T08:28:48;96440.63;;;21.79;82.46
42001;BME280;27689;48.390;10.856;2022-08-30T08:31:32;96446.75;;;21.99;78.66
42001;BME280;27689;48.390;10.856;2022-08-30T08:34:16;96443.00;;;22.13;78.11
42001;BME280;27689;48.390;10.856;2022-08-30T08:37:03;96447.00;;;22.42;82.08
42001;BME280;27689;48.390;10.856;2022-08-30T08:39:47;96459.56;;;22.73;78.88
42001;BME280;27689;48.390;10.856;2022-08-30T08:42:52;96453.56;;;23.16;77.95
42001;BME280;27689;48.390;10.856;2022-08-30T08:45:58;96449.78;;;23.55;73.81
42001;BME280;27689;48.390;10.856;2022-08-30T08:48:47;96450.75;;;23.61;72.65
42001;BME280;27689;48.390;10.856;2022-08-30T08:51:38;96436.53;;;23.60;74.31
42001;BME280;27689;48.390;10.856;2022-08-30T08:54:52;96436.53;;;23.85;72.58
42001;BME280;27689;48.390;10.856;2022-08-30T08:57:39;96442.38;;;23.94;68.88
42001;BME280;27689;48.390;10.856;2022-08-30T09:00:24;96432.06;;;24.15;72.29
42001;BME280;27689;48.390;10.856;2022-08-30T09:03:11;96427.41;;;24.29;70.92
42001;BME280;27689;48.390;10.856;2022-08-30T09:05:56;96429.13;;;24.53;69.22
42001;BME280;27689;48.390;10.856;2022-08-30T09:08:41;96431.63;;;24.67;69.54
42001;BME280;27689;48.390;10.856;2022-08-30T09:11:28;96424.41;;;24.67;65.42
42001;BME280;27689;48.390;10.856;2022-08-30T09:14:21;96420.59;;;24.75;65.40
42001;BME280;27689;48.390;10.856;2022-08-30T09:17:07;96422.50;;;24.86;65.27
42001;BME280;27689;48.390;10.856;2022-08-30T09:22:38;96419.34;;;25.19;64.79
42001;BME280;27689;48.390;10.856;2022-08-30T09:25:30;96412.94;;;25.32;66.01
42001;BME280;27689;48.390;10.856;2022-08-30T09:28:20;96415.03;;;25.41;65.51
42001;BME280;27689;48.390;10.856;2022-08-30T09:31:07;96416.13;;;25.63;64.32
42001;BME280;27689;48.390;10.856;2022-08-30T09:34:07;96400.13;;;25.80;63.10
42001;BME280;27689;48.390;10.856;2022-08-30T09:36:53;96399.97;;;25.98;61.57
42001;BME280;27689;48.390;10.856;2022-08-30T09:39:41;96411.22;;;26.36;60.38
42001;BME280;27689;48.390;10.856;2022-08-30T09:42:28;96408.91;;;26.39;58.95
42001;BME280;27689;48.390;10.856;2022-08-30T09:45:17;96406.03;;;26.46;58.45
42001;BME280;27689;48.390;10.856;2022-08-30T09:48:22;96399.72;;;26.52;55.85
42001;BME280;27689;48.390;10.856;2022-08-30T10:00:04;96382.63;;;26.58;55.63
42001;BME280;27689;48.390;10.856;2022-08-30T10:03:07;96378.16;;;26.63;55.27
42001;BME280;27689;48.390;10.856;2022-08-30T10:06:21;96371.97;;;26.63;55.49
42001;BME280;27689;48.390;10.856;2022-08-30T10:09:22;96371.06;;;26.86;54.25
42001;BME280;27689;48.390;10.856;2022-08-30T10:12:37;96368.56;;;26.96;49.84
42001;BME280;27689;48.390;10.856;2022-08-30T10:15:34;96361.91;;;26.87;50.10
42001;BME280;27689;48.390;10.856;2022-08-30T10:19:02;96358.13;;;26.99;49.09
42001;BME280;27689;48.390;10.856;2022-08-30T10:22:11;96360.19;;;26.81;46.17
42001;BME280;27689;48.390;10.856;2022-08-30T10:25:11;96347.63;;;26.86;49.61
42001;BME280;27689;48.390;10.856;2022-08-30T10:28:10;96346.03;;;27.02;52.66
42001;BME280;27689;48.390;10.856;2022-08-30T10:31:10;96345.97;;;27.14;51.21
42001;BME280;27689;48.390;10.856;2022-08-30T10:33:59;96338.97;;;27.13;51.53
42001;BME280;27689;48.390;10.856;2022-08-30T10:36:51;96341.91;;;27.28;49.98
42001;BME280;27689;48.390;10.856;2022-08-30T10:39:45;96330.41;;;27.54;49.94
42001;BME280;27689;48.390;10.856;2022-08-30T10:42:31;96335.47;;;27.67;47.19
42001;BME280;27689;48.390;10.856;2022-08-30T10:45:16;96335.59;;;27.78;47.79
42001;BME280;27689;48.390;10.856;2022-08-30T10:48:07;96339.31;;;27.55;49.81
42001;BME280;27689;48.390;10.856;2022-08-30T10:50:57;96332.78;;;27.51;45.73
42001;BME280;27689;48.390;10.856;2022-08-30T10:53:53;96334.41;;;27.68;49.20
42001;BME280;27689;48.390;10.856;2022-08-30T10:56:40;96331.22;;;27.71;47.54
42001;BME280;27689;48.390;10.856;2022-08-30T10:59:26;96330.84;;;27.85;43.60
42001;BME280;27689;48.390;10.856;2022-08-30T11:05:28;96328.72;;;28.08;45.47
42001;BME280;27689;48.390;10.856;2022-08-30T11:14:43;96325.47;;;28.28;41.47
42001;BME280;27689;48.390;10.856;2022-08-30T11:17:44;96334.25;;;28.19;45.85
42001;BME280;27689;48.390;10.856;2022-08-30T11:20:47;96324.41;;;28.29;41.19
42001;BME280;27689;48.390;10.856;2022-08-30T11:23:34;96328.56;;;28.42;43.12
42001;BME280;27689;48.390;10.856;2022-08-30T11:29:47;96322.25;;;28.58;43.65
42001;BME280;27689;48.390;10.856;2022-08-30T11:32:58;96324.53;;;28.71;45.56
42001;BME280;27689;48.390;10.856;2022-08-30T11:35:46;96319.50;;;28.80;46.50
42001;BME280;27689;48.390;10.856;2022-08-30T11:41:44;96309.16;;;28.99;44.73
42001;BME280;27689;48.390;10.856;2022-08-30T11:44:30;96313.16;;;28.96;38.92
42001;BME280;27689;48.390;10.856;2022-08-30T11:53:28;96324.78;;;29.34;44.16
42001;BME280;27689;48.390;10.856;2022-08-30T11:56:19;96311.53;;;29.32;42.52
42001;BME280;27689;48.390;10.856;2022-08-30T11:59:30;96318.63;;;29.38;40.34
42001;BME280;27689;48.390;10.856;2022-08-30T12:14:06;96301.34;;;29.92;41.26
42001;BME280;27689;48.390;10.856;2022-08-30T12:16:50;96304.88;;;29.92;39.37
42001;BME280;27689;48.390;10.856;2022-08-30T12:19:55;96304.13;;;29.50;41.48
42001;BME280;27689;48.390;10.856;2022-08-30T12:22:40;96303.41;;;29.27;41.77
42001;BME280;27689;48.390;10.856;2022-08-30T12:25:28;96304.47;;;29.21;41.93
42001;BME280;27689;48.390;10.856;2022-08-30T12:31:07;96304.13;;;29.55;43.38
42001;BME280;27689;48.390;10.856;2022-08-30T12:33:55;96301.50;;;29.65;41.54
42001;BME280;27689;48.390;10.856;2022-08-30T12:39:38;96296.19;;;29.80;43.10
42001;BME280;27689;48.390;10.856;2022-08-30T12:42:26;96297.25;;;29.84;42.64
42001;BME280;27689;48.390;10.856;2022-08-30T12:45:13;96289.91;;;29.69;39.86
42001;BME280;27689;48.390;10.856;2022-08-30T12:48:07;96281.78;;;29.64;40.86
42001;BME280;27689;48.390;10.856;2022-08-30T12:50:54;96292.22;;;29.45;38.67
42001;BME280;27689;48.390;10.856;2022-08-30T12:53:41;96289.59;;;29.24;41.38
42001;BME280;27689;48.390;10.856;2022-08-30T12:56:44;96277.13;;;29.12;43.50
42001;BME280;27689;48.390;10.856;2022-08-30T12:59:49;96275.56;;;29.17;43.17
42001;BME280;27689;48.390;10.856;2022-08-30T13:02:46;96274.41;;;29.07;40.51
42001;BME280;27689;48.390;10.856;2022-08-30T13:08:33;96262.63;;;29.19;38.15
42001;BME280;27689;48.390;10.856;2022-08-30T13:14:29;96253.59;;;29.45;41.82
42001;BME280;27689;48.390;10.856;2022-08-30T13:17:19;96259.38;;;29.69;40.71
42001;BME280;27689;48.390;10.856;2022-08-30T13:23:04;96251.03;;;29.75;40.13
42001;BME280;27689;48.390;10.856;2022-08-30T13:25:49;96250.44;;;29.68;39.08
42001;BME280;27689;48.390;10.856;2022-08-30T13:28:47;96246.09;;;29.57;38.69
42001;BME280;27689;48.390;10.856;2022-08-30T13:31:31;96240.13;;;29.50;37.37
42001;BME280;27689;48.390;10.856;2022-08-30T13:34:16;96239.00;;;29.41;36.34
42001;BME280;27689;48.390;10.856;2022-08-30T13:37:02;96236.69;;;29.18;38.85
42001;BME280;27689;48.390;10.856;2022-08-30T13:39:46;96232.06;;;29.08;38.60
42001;BME280;27689;48.390;10.856;2022-08-30T13:42:30;96229.25;;;29.35;40.38
42001;BME280;27689;48.390;10.856;2022-08-30T13:45:15;96234.19;;;29.48;40.60
42001;BME280;27689;48.390;10.856;2022-08-30T13:47:59;96234.66;;;29.40;39.35
42001;BME280;27689;48.390;10.856;2022-08-30T13:50:43;96219.47;;;29.29;38.57
42001;BME280;27689;48.390;10.856;2022-08-30T13:53:27;96218.66;;;29.28;38.54
42001;BME280;27689;48.390;10.856;2022-08-30T13:56:11;96210.81;;;29.22;38.50
42001;BME280;27689;48.390;10.856;2022-08-30T13:58:56;96220.41;;;29.02;37.14
42001;BME280;27689;48.390;10.856;2022-08-30T14:01:40;96218.25;;;28.67;37.72
42001;BME280;27689;48.390;10.856;2022-08-30T14:04:24;96215.44;;;28.52;40.15
42001;BME280;27689;48.390;10.856;2022-08-30T14:07:08;96206.13;;;28.33;40.42
42001;BME280;27689;48.390;10.856;2022-08-30T14:09:52;96215.81;;;28.07;42.61
42001;BME280;27689;48.390;10.856;2022-08-30T14:12:36;96209.59;;;28.06;41.24
42001;BME280;27689;48.390;10.856;2022-08-30T14:15:20;96201.88;;;28.15;39.79
42001;BME280;27689;48.390;10.856;2022-08-30T14:18:05;96196.31;;;28.22;40.48
42001;BME280;27689;48.390;10.856;2022-08-30T14:20:49;96187.97;;;28.23;40.68
42001;BME280;27689;48.390;10.856;2022-08-30T14:23:32;96194.69;;;28.21;40.92
42001;BME280;27689;48.390;10.856;2022-08-30T14:26:19;96191.16;;;28.20;41.09
42001;BME280;27689;48.390;10.856;2022-08-30T14:29:07;96185.97;;;28.14;40.76
42001;BME280;27689;48.390;10.856;2022-08-30T14:31:51;96182.41;;;28.08;40.25
42001;BME280;27689;48.390;10.856;2022-08-30T14:34:35;96189.50;;;28.14;39.89
42001;BME280;27689;48.390;10.856;2022-08-30T14:37:19;96180.59;;;28.14;39.84
42001;BME280;27689;48.390;10.856;2022-08-30T14:40:03;96178.47;;;28.16;40.16
42001;BME280;27689;48.390;10.856;2022-08-30T14:42:48;96173.06;;;28.16;41.36
42001;BME280;27689;48.390;10.856;2022-08-30T14:45:32;96166.31;;;28.13;41.87
42001;BME280;27689;48.390;10.856;2022-08-30T14:48:15;96160.59;;;28.09;42.12
42001;BME280;27689;48.390;10.856;2022-08-30T14:50:59;96157.03;;;27.99;41.59
42001;BME280;27689;48.390;10.856;2022-08-30T14:53:44;96159.50;;;27.79;38.78
42001;BME280;27689;48.390;10.856;2022-08-30T14:56:28;96156.78;;;27.73;39.22
42001;BME280;27689;48.390;10.856;2022-08-30T14:59:13;96153.00;;;27.53;41.22
42001;BME280;27689;48.390;10.856;2022-08-30T15:01:57;96148.91;;;27.45;41.90
42001;BME280;27689;48.390;10.856;2022-08-30T15:04:41;96149.34;;;27.37;42.07
42001;BME280;27689;48.390;10.856;2022-08-30T15:07:25;96151.69;;;27.28;41.23
42001;BME280;27689;48.390;10.856;2022-08-30T15:10:10;96145.66;;;27.21;42.38
42001;BME280;27689;48.390;10.856;2022-08-30T15:12:57;96141.59;;;27.19;42.49
42001;BME280;27689;48.390;10.856;2022-08-30T15:15:42;96140.72;;;27.13;42.36
42001;BME280;27689;48.390;10.856;2022-08-30T15:18:25;96129.66;;;27.10;41.52
42001;BME280;27689;48.390;10.856;2022-08-30T15:21:09;96143.59;;;27.07;41.16
42001;BME280;27689;48.390;10.856;2022-08-30T15:23:54;96134.91;;;26.83;42.54
42001;BME280;27689;48.390;10.856;2022-08-30T15:26:37;96133.94;;;26.72;43.61